createdAt,value
2023-03-12T00:00:27.118Z,91.98
2023-03-12T00:07:38.740Z,92.14
2023-03-12T00:10:17.816Z,92.03
2023-03-12T00:12:49.960Z,91.91
2023-03-12T00:15:29.491Z,91.68
2023-03-12T00:18:01.924Z,91.85
2023-03-12T00:24:55.050Z,91.84
2023-03-12T00:28:28.338Z,91.70
2023-03-12T00:44:50.372Z,92.07
2023-03-12T00:47:56.621Z,91.81
2023-03-12T00:50:38.071Z,91.89
2023-03-12T00:53:55.990Z,92.03
2023-03-12T00:56:56.769Z,92.01
2023-03-12T00:59:29.049Z,92.01
2023-03-12T01:02:08.043Z,92.10
2023-03-12T01:04:40.450Z,92.07
2023-03-12T01:11:44.985Z,92.22
2023-03-12T01:14:24.340Z,92.38
2023-03-12T01:16:56.566Z,92.27
2023-03-12T01:19:34.854Z,92.43
2023-03-12T01:26:54.933Z,92.46
2023-03-12T01:29:33.861Z,92.66
2023-03-12T01:32:06.925Z,92.72
2023-03-12T01:34:48.502Z,92.46
2023-03-12T01:42:02.096Z,93.07
2023-03-12T01:44:58.468Z,92.83
2023-03-12T01:48:19.220Z,92.73
2023-03-12T01:51:47.131Z,92.64
2023-03-12T02:03:11.716Z,92.67
2023-03-12T02:10:38.712Z,92.73
2023-03-12T02:13:12.420Z,92.80
2023-03-12T02:20:45.804Z,92.86
2023-03-12T02:27:27.970Z,92.93
2023-03-12T02:34:31.925Z,93.11
2023-03-12T02:37:04.138Z,92.99
2023-03-12T02:47:50.980Z,94.04
2023-03-12T02:50:30.146Z,94.04
2023-03-12T02:53:02.282Z,93.80
2023-03-12T02:58:54.911Z,93.76
2023-03-12T03:01:28.371Z,94.04
2023-03-12T03:04:09.414Z,94.08
2023-03-12T03:07:26.906Z,94.63
2023-03-12T03:10:07.226Z,94.31
2023-03-12T03:12:40.673Z,94.48
2023-03-12T03:15:19.913Z,94.63
2023-03-12T03:17:52.587Z,94.48
2023-03-12T03:20:33.781Z,94.50
2023-03-12T03:23:08.794Z,94.54
2023-03-12T03:26:32.909Z,94.35
2023-03-12T03:29:05.523Z,94.32
2023-03-12T03:31:44.406Z,94.64
2023-03-12T03:34:16.773Z,94.51
2023-03-12T03:36:56.073Z,94.73
2023-03-12T03:39:29.488Z,94.65
2023-03-12T03:42:08.262Z,94.75
2023-03-12T03:49:12.913Z,94.85
2023-03-12T03:51:52.860Z,95.01
2023-03-12T03:59:13.033Z,95.23
2023-03-12T04:06:19.020Z,95.01
2023-03-12T04:08:51.512Z,94.95
2023-03-12T04:15:56.386Z,94.66
2023-03-12T04:32:15.576Z,94.08
2023-03-12T04:34:48.492Z,94.08
2023-03-12T04:37:24.270Z,93.86
2023-03-12T04:44:24.166Z,93.67
2023-03-12T04:47:00.116Z,93.56
2023-03-12T04:50:26.938Z,93.45
2023-03-12T04:57:26.304Z,93.28
2023-03-12T05:01:04.610Z,93.27
2023-03-12T05:08:10.001Z,93.08
2023-03-12T05:19:39.007Z,92.84
2023-03-12T05:26:53.487Z,92.59
2023-03-12T05:29:55.843Z,92.13
2023-03-12T05:37:04.274Z,91.83
2023-03-12T05:44:04.151Z,91.54
2023-03-12T05:46:36.639Z,91.26
2023-03-12T05:49:16.158Z,91.24
2023-03-12T05:52:29.114Z,91.30
2023-03-12T05:55:10.068Z,90.85
2023-03-12T05:58:03.008Z,89.67
2023-03-12T06:00:44.449Z,89.75
2023-03-12T06:12:29.241Z,88.52
2023-03-12T06:15:09.846Z,89.27
2023-03-12T06:23:30.663Z,88.73
2023-03-12T06:26:10.150Z,86.57
2023-03-12T06:28:42.821Z,86.77
2023-03-12T06:31:22.337Z,85.89
2023-03-12T06:38:28.029Z,88.48
2023-03-12T06:41:09.330Z,85.06
2023-03-12T06:44:24.501Z,84.85
2023-03-12T06:47:48.999Z,80.44
2023-03-12T06:50:21.404Z,80.40
2023-03-12T07:00:35.303Z,80.91
2023-03-12T07:03:05.814Z,79.64
2023-03-12T07:09:45.487Z,78.91
2023-03-12T07:13:14.859Z,80.08
2023-03-12T07:15:50.762Z,79.98
2023-03-12T07:18:19.772Z,78.77
2023-03-12T07:20:55.379Z,76.90
2023-03-12T07:23:24.426Z,75.17
2023-03-12T07:26:01.266Z,77.91
2023-03-12T07:28:30.882Z,68.46
2023-03-12T07:31:06.592Z,72.22
2023-03-12T07:38:09.116Z,69.67
2023-03-12T07:40:44.852Z,71.12
2023-03-12T07:43:14.148Z,72.55
2023-03-12T07:45:50.630Z,71.55
2023-03-12T07:48:20.213Z,71.46
2023-03-12T08:03:51.368Z,62.98
2023-03-12T08:06:30.631Z,68.75
2023-03-12T08:09:06.666Z,66.47
2023-03-12T08:16:11.647Z,67.36
2023-03-12T08:18:49.128Z,57.49
2023-03-12T08:25:51.179Z,63.68
2023-03-12T08:28:26.408Z,62.05
2023-03-12T08:30:58.722Z,60.46
2023-03-12T08:38:00.392Z,61.06
2023-03-12T08:40:32.202Z,58.15
2023-03-12T08:43:08.671Z,59.52
2023-03-12T08:45:37.982Z,58.05
2023-03-12T08:48:13.381Z,59.34
2023-03-12T08:50:42.310Z,59.81
2023-03-12T08:53:18.193Z,59.58
2023-03-12T08:55:47.585Z,61.77
2023-03-12T08:58:24.843Z,60.43
2023-03-12T09:05:29.444Z,61.76
2023-03-12T09:08:06.008Z,59.56
2023-03-12T09:10:35.262Z,57.02
2023-03-12T09:13:10.457Z,59.80
2023-03-12T09:15:39.354Z,59.80
2023-03-12T09:22:42.617Z,52.45
2023-03-12T09:25:18.949Z,48.05
2023-03-12T09:27:48.780Z,50.87
2023-03-12T09:30:26.531Z,53.68
2023-03-12T09:33:10.171Z,44.13
2023-03-12T09:35:45.579Z,46.02
2023-03-12T09:38:15.491Z,44.20
2023-03-12T09:40:51.985Z,44.00
2023-03-12T09:47:38.194Z,35.81
2023-03-12T09:59:03.293Z,35.98
2023-03-12T10:02:02.663Z,36.61
2023-03-12T10:09:07.161Z,36.27
2023-03-12T10:11:54.763Z,37.41
2023-03-12T10:14:38.289Z,37.54
2023-03-12T10:17:29.822Z,38.50
2023-03-12T10:20:16.285Z,38.43
2023-03-12T10:26:35.639Z,39.05
2023-03-12T10:29:12.969Z,37.79
2023-03-12T10:31:56.581Z,37.81
2023-03-12T10:34:32.653Z,37.98
2023-03-12T10:37:06.727Z,38.74
2023-03-12T10:39:35.901Z,38.13
2023-03-12T10:42:15.847Z,39.57
2023-03-12T10:44:46.788Z,39.46
2023-03-12T10:47:28.946Z,39.50
2023-03-12T10:50:14.054Z,37.61
2023-03-12T10:52:47.042Z,37.93
2023-03-12T10:55:23.542Z,38.29
2023-03-12T10:57:55.786Z,38.32
2023-03-12T11:00:27.817Z,38.04
2023-03-12T11:03:00.338Z,37.19
2023-03-12T11:05:32.180Z,38.31
2023-03-12T11:08:02.018Z,39.78
2023-03-12T11:10:42.905Z,40.25
2023-03-12T11:13:28.493Z,39.71
2023-03-12T11:15:59.304Z,40.03
2023-03-12T11:18:33.824Z,39.47
2023-03-12T11:21:28.337Z,39.73
2023-03-12T11:24:10.639Z,40.77
2023-03-12T11:26:48.742Z,41.03
2023-03-12T11:33:38.781Z,40.40
2023-03-12T11:36:27.194Z,41.52
2023-03-12T11:39:01.233Z,41.22
2023-03-12T11:42:02.938Z,40.55
2023-03-12T11:44:44.034Z,41.11
2023-03-12T11:47:31.672Z,40.94
2023-03-12T11:50:14.608Z,42.23
2023-03-12T11:52:57.562Z,42.05
2023-03-12T11:55:43.620Z,39.33
2023-03-12T11:58:39.088Z,39.99
2023-03-12T12:01:12.918Z,38.72
2023-03-12T12:17:14.223Z,40.10
2023-03-12T12:20:26.199Z,39.36
2023-03-12T12:27:33.154Z,38.79
2023-03-12T12:43:35.461Z,38.90
2023-03-12T12:46:22.731Z,37.79
2023-03-12T13:03:24.339Z,36.39
2023-03-12T13:05:56.388Z,38.35
2023-03-12T13:16:42.387Z,36.54
2023-03-12T13:28:20.900Z,35.91
2023-03-12T13:30:51.732Z,33.52
2023-03-12T13:38:30.762Z,36.29
2023-03-12T13:41:01.461Z,37.72
2023-03-12T13:48:37.013Z,38.60
2023-03-12T13:55:40.401Z,39.62
2023-03-12T13:58:20.894Z,39.66
2023-03-12T14:01:41.115Z,40.78
2023-03-12T14:05:06.641Z,41.01
2023-03-12T14:12:14.021Z,41.61
2023-03-12T14:19:20.835Z,41.96
2023-03-12T14:22:35.111Z,42.19
2023-03-12T14:29:57.057Z,42.59
2023-03-12T14:33:01.616Z,42.68
2023-03-12T14:35:41.769Z,42.66
2023-03-12T14:38:50.876Z,42.80
2023-03-12T14:46:12.079Z,43.52
2023-03-12T14:49:16.140Z,43.68
2023-03-12T14:51:52.214Z,43.82
2023-03-12T14:54:24.071Z,44.10
2023-03-12T14:56:59.928Z,44.55
2023-03-12T14:59:31.358Z,44.67
2023-03-12T15:06:53.159Z,44.64
2023-03-12T15:09:58.067Z,44.93
2023-03-12T15:12:36.660Z,44.93
2023-03-12T15:18:55.650Z,45.29
2023-03-12T15:24:43.558Z,45.79
2023-03-12T15:31:46.888Z,46.70
2023-03-12T15:39:46.807Z,46.66
2023-03-12T15:42:21.784Z,46.52
2023-03-12T15:45:41.669Z,46.57
2023-03-12T15:48:32.294Z,46.75
2023-03-12T15:51:04.831Z,46.87
2023-03-12T15:53:37.501Z,46.64
2023-03-12T16:03:24.684Z,47.22
2023-03-12T16:05:59.301Z,47.53
2023-03-12T16:12:27.488Z,47.83
2023-03-12T16:15:07.794Z,47.80
2023-03-12T16:17:49.314Z,47.95
2023-03-12T16:20:22.137Z,48.09
2023-03-12T16:23:14.361Z,48.17
2023-03-12T16:26:13.398Z,48.43
2023-03-12T16:28:46.188Z,48.49
2023-03-12T16:31:19.547Z,48.54
2023-03-12T16:33:59.010Z,48.52
2023-03-12T16:36:31.156Z,48.76
2023-03-12T16:39:09.495Z,48.89
2023-03-12T16:41:42.259Z,49.03
2023-03-12T16:44:22.453Z,49.15
2023-03-12T16:46:54.651Z,49.18
2023-03-12T16:49:26.818Z,49.38
2023-03-12T17:00:58.365Z,49.79
2023-03-12T17:04:02.418Z,50.01
2023-03-12T17:06:34.679Z,50.38
2023-03-12T17:09:10.108Z,50.63
2023-03-12T17:16:11.647Z,51.14
2023-03-12T17:18:44.536Z,51.16
2023-03-12T17:21:25.078Z,51.34
2023-03-12T17:28:29.591Z,52.04
2023-03-12T17:31:09.046Z,52.13
2023-03-12T17:33:43.067Z,52.17
2023-03-12T17:36:21.603Z,52.17
2023-03-12T17:38:53.651Z,52.14
2023-03-12T17:41:35.136Z,52.22
2023-03-12T17:44:52.920Z,52.44
2023-03-12T17:47:33.133Z,52.46
2023-03-12T17:54:37.894Z,52.81
2023-03-12T17:57:16.513Z,52.58
2023-03-12T17:59:49.552Z,52.94
2023-03-12T18:06:53.930Z,52.65
2023-03-12T18:09:32.878Z,52.72
2023-03-12T18:13:06.191Z,52.82
2023-03-12T18:15:44.657Z,52.84
2023-03-12T18:18:16.796Z,52.82
2023-03-12T18:20:56.108Z,52.73
2023-03-12T18:27:28.593Z,53.12
2023-03-12T18:30:00.640Z,53.67
2023-03-12T18:32:39.695Z,53.55
2023-03-12T18:35:12.434Z,53.38
2023-03-12T18:37:52.037Z,53.56
2023-03-12T18:44:56.625Z,54.01
2023-03-12T18:52:19.274Z,54.39
2023-03-12T18:55:24.569Z,54.30
2023-03-12T18:58:04.291Z,54.28
2023-03-12T19:00:36.490Z,54.29
2023-03-12T19:03:15.667Z,54.27
2023-03-12T19:05:48.715Z,54.41
2023-03-12T19:08:27.646Z,54.46
2023-03-12T19:11:00.090Z,54.48
2023-03-12T19:13:39.005Z,54.52
2023-03-12T19:20:01.975Z,54.70
2023-03-12T19:22:34.275Z,54.95
2023-03-12T19:25:12.996Z,55.15
2023-03-12T19:27:45.219Z,54.99
2023-03-12T19:30:27.496Z,54.95
2023-03-12T19:37:38.148Z,55.25
2023-03-12T19:57:54.296Z,55.78
2023-03-12T20:00:33.757Z,55.72
2023-03-12T20:03:06.156Z,55.58
2023-03-12T20:05:46.706Z,55.81
2023-03-12T20:08:21.102Z,55.67
2023-03-12T20:11:43.551Z,55.51
2023-03-12T20:23:45.296Z,55.65
2023-03-12T20:26:20.154Z,55.66
2023-03-12T20:33:22.369Z,55.68
2023-03-12T20:35:56.133Z,55.66
2023-03-12T20:38:35.173Z,55.64
2023-03-12T20:45:40.612Z,55.83
2023-03-12T20:52:02.128Z,55.70
2023-03-12T20:54:41.371Z,55.70
2023-03-12T20:57:14.050Z,55.71
2023-03-12T20:59:53.129Z,55.61
2023-03-12T21:02:25.812Z,55.69
2023-03-12T21:05:25.195Z,55.68
2023-03-12T21:12:40.022Z,55.55
2023-03-12T21:15:19.121Z,55.84
2023-03-12T21:17:51.263Z,55.84
2023-03-12T21:33:10.058Z,55.47
2023-03-12T21:35:49.266Z,55.55
2023-03-12T21:38:21.419Z,55.45
2023-03-12T21:45:26.314Z,55.42
2023-03-12T21:52:02.637Z,55.57
2023-03-12T21:54:36.896Z,55.67
2023-03-12T21:57:16.178Z,55.62
2023-03-12T21:59:48.430Z,55.58
2023-03-12T22:06:52.265Z,55.55
2023-03-12T22:09:27.040Z,55.49
2023-03-12T22:25:38.337Z,55.82
2023-03-12T22:31:47.501Z,55.88
2023-03-12T22:34:48.967Z,55.74
2023-03-12T22:41:17.382Z,55.96
2023-03-12T22:44:35.361Z,55.90
2023-03-12T22:47:28.037Z,56.26
2023-03-12T22:50:00.228Z,56.15
2023-03-12T22:52:36.765Z,56.44
2023-03-12T22:55:16.616Z,56.37
2023-03-12T22:57:48.838Z,56.63
2023-03-12T23:00:28.291Z,57.31
2023-03-12T23:03:00.475Z,59.40
2023-03-12T23:05:39.015Z,59.17
2023-03-12T23:08:11.568Z,58.92
2023-03-12T23:11:15.591Z,59.19
2023-03-12T23:14:34.036Z,58.88
2023-03-12T23:17:49.695Z,58.62
2023-03-12T23:20:27.997Z,58.50
2023-03-12T23:23:00.176Z,58.49
2023-03-12T23:30:05.783Z,58.61
2023-03-12T23:32:44.075Z,58.49
2023-03-12T23:35:16.867Z,58.69
2023-03-12T23:42:21.414Z,61.23
2023-03-12T23:44:53.578Z,60.97
2023-03-12T23:50:42.375Z,62.49
2023-03-12T23:53:14.482Z,63.34
